createdAt,value
2023-05-02T00:00:18.045Z,505.00
2023-05-02T00:01:18.026Z,510.00
2023-05-02T00:02:18.083Z,511.00
2023-05-02T00:03:18.091Z,508.00
2023-05-02T00:04:18.125Z,514.00
2023-05-02T00:05:17.993Z,512.00
2023-05-02T00:06:18.018Z,514.00
2023-05-02T00:07:17.958Z,515.00
2023-05-02T00:08:18.016Z,512.00
2023-05-02T00:09:17.971Z,514.00
2023-05-02T00:10:17.960Z,512.00
2023-05-02T00:11:17.963Z,509.00
2023-05-02T00:12:17.926Z,511.00
2023-05-02T00:13:17.926Z,516.00
2023-05-02T00:14:17.962Z,507.00
2023-05-02T00:15:17.958Z,508.00
2023-05-02T00:16:17.915Z,510.00
2023-05-02T00:17:18.043Z,512.00
2023-05-02T00:18:17.954Z,512.00
2023-05-02T00:19:17.917Z,512.00
2023-05-02T00:20:17.966Z,509.00
2023-05-02T00:21:17.902Z,507.00
2023-05-02T00:22:17.879Z,513.00
2023-05-02T00:23:17.896Z,504.00
2023-05-02T00:24:17.849Z,511.00
2023-05-02T00:25:17.853Z,511.00
2023-05-02T00:26:17.830Z,506.00
2023-05-02T00:27:17.856Z,511.00
2023-05-02T00:28:17.833Z,509.00
2023-05-02T00:29:17.838Z,502.00
2023-05-02T00:30:17.829Z,511.00
2023-05-02T00:31:17.899Z,507.00
2023-05-02T00:32:17.822Z,510.00
2023-05-02T00:33:17.821Z,514.00
2023-05-02T00:34:17.803Z,510.00
2023-05-02T00:35:17.781Z,514.00
2023-05-02T00:36:17.783Z,509.00
2023-05-02T00:37:17.784Z,505.00
2023-05-02T00:38:17.746Z,511.00
2023-05-02T00:39:17.792Z,514.00
2023-05-02T00:40:17.752Z,510.00
2023-05-02T00:41:17.727Z,511.00
2023-05-02T00:42:17.769Z,509.00
2023-05-02T00:43:17.723Z,508.00
2023-05-02T00:44:17.707Z,511.00
2023-05-02T00:45:17.682Z,507.00
2023-05-02T00:46:17.810Z,509.00
2023-05-02T00:47:17.693Z,507.00
2023-05-02T00:48:17.763Z,507.00
2023-05-02T00:49:17.754Z,508.00
2023-05-02T00:50:17.827Z,516.00
2023-05-02T00:51:17.848Z,511.00
2023-05-02T00:52:17.882Z,511.00
2023-05-02T00:53:17.893Z,508.00
2023-05-02T00:54:17.919Z,507.00
2023-05-02T00:55:17.952Z,504.00
2023-05-02T00:56:17.963Z,509.00
2023-05-02T00:57:17.981Z,509.00
2023-05-02T00:58:18.035Z,512.00
2023-05-02T00:59:18.115Z,509.00
2023-05-02T01:00:18.129Z,514.00
2023-05-02T01:01:18.146Z,511.00
2023-05-02T01:02:18.161Z,508.00
2023-05-02T01:03:18.276Z,511.00
2023-05-02T01:04:18.275Z,514.00
2023-05-02T01:05:18.226Z,503.00
2023-05-02T01:06:18.334Z,510.00
2023-05-02T01:07:18.265Z,513.00
2023-05-02T01:08:18.301Z,503.00
2023-05-02T01:09:18.356Z,507.00
2023-05-02T01:10:18.361Z,510.00
2023-05-02T01:11:18.398Z,511.00
2023-05-02T01:12:18.427Z,502.00
2023-05-02T01:13:18.409Z,503.00
2023-05-02T01:14:18.406Z,504.00
2023-05-02T01:15:18.419Z,505.00
2023-05-02T01:16:18.470Z,508.00
2023-05-02T01:17:18.396Z,507.00
2023-05-02T01:18:18.388Z,509.00
2023-05-02T01:19:18.429Z,501.00
2023-05-02T01:20:18.388Z,514.00
2023-05-02T01:21:18.389Z,513.00
2023-05-02T01:22:18.388Z,515.00
2023-05-02T01:23:18.350Z,505.00
2023-05-02T01:24:18.357Z,511.00
2023-05-02T01:25:18.321Z,509.00
2023-05-02T01:26:18.330Z,507.00
2023-05-02T01:27:18.324Z,511.00
2023-05-02T01:28:18.347Z,508.00
2023-05-02T01:29:18.380Z,513.00
2023-05-02T01:30:18.397Z,503.00
2023-05-02T01:31:18.567Z,511.00
2023-05-02T01:32:18.450Z,512.00
2023-05-02T01:33:18.480Z,511.00
2023-05-02T01:34:18.520Z,511.00
2023-05-02T01:35:18.566Z,511.00
2023-05-02T01:36:18.582Z,503.00
2023-05-02T01:37:18.640Z,513.00
2023-05-02T01:38:18.657Z,508.00
2023-05-02T01:39:18.700Z,508.00
2023-05-02T01:40:18.711Z,505.00
2023-05-02T01:41:18.748Z,510.00
2023-05-02T01:42:18.818Z,507.00
2023-05-02T01:43:18.833Z,506.00
2023-05-02T01:44:18.876Z,504.00
2023-05-02T01:45:18.920Z,509.00
2023-05-02T01:46:18.989Z,508.00
2023-05-02T01:47:19.044Z,508.00
2023-05-02T01:48:19.018Z,511.00
2023-05-02T01:49:19.064Z,507.00
2023-05-02T01:50:19.088Z,508.00
2023-05-02T01:51:19.136Z,509.00
2023-05-02T01:52:19.178Z,514.00
2023-05-02T01:53:19.216Z,509.00
2023-05-02T01:54:19.237Z,510.00
2023-05-02T01:55:19.270Z,511.00
2023-05-02T01:56:19.336Z,503.00
2023-05-02T01:57:19.340Z,505.00
2023-05-02T01:58:20.294Z,509.00
2023-05-02T01:59:19.398Z,512.00
2023-05-02T02:00:19.476Z,508.00
2023-05-02T02:01:19.696Z,511.00
2023-05-02T02:02:19.534Z,511.00
2023-05-02T02:03:19.631Z,515.00
2023-05-02T02:04:19.633Z,509.00
2023-05-02T02:05:19.598Z,503.00
2023-05-02T02:06:19.699Z,514.00
2023-05-02T02:07:19.690Z,505.00
2023-05-02T02:08:19.783Z,505.00
2023-05-02T02:09:19.802Z,510.00
2023-05-02T02:10:19.790Z,511.00
2023-05-02T02:11:19.819Z,504.00
2023-05-02T02:12:19.940Z,506.00
2023-05-02T02:13:19.903Z,508.00
2023-05-02T02:14:19.934Z,511.00
2023-05-02T02:15:19.972Z,506.00
2023-05-02T02:16:20.017Z,505.00
2023-05-02T02:17:20.054Z,504.00
2023-05-02T02:18:20.066Z,510.00
2023-05-02T02:19:20.130Z,502.00
2023-05-02T02:20:20.160Z,512.00
2023-05-02T02:21:20.216Z,511.00
2023-05-02T02:22:20.233Z,511.00
2023-05-02T02:23:20.254Z,508.00
2023-05-02T02:24:20.333Z,507.00
2023-05-02T02:25:20.339Z,510.00
2023-05-02T02:26:20.357Z,504.00
2023-05-02T02:27:20.403Z,504.00
2023-05-02T02:28:20.456Z,500.00
2023-05-02T02:29:20.467Z,508.00
2023-05-02T02:30:20.510Z,511.00
2023-05-02T02:31:20.635Z,502.00
2023-05-02T02:32:20.593Z,505.00
2023-05-02T02:33:20.619Z,502.00
2023-05-02T02:34:20.656Z,500.00
2023-05-02T02:35:20.723Z,503.00
2023-05-02T02:36:20.754Z,504.00
2023-05-02T02:37:20.774Z,508.00
2023-05-02T02:38:20.804Z,505.00
2023-05-02T02:39:20.865Z,513.00
2023-05-02T02:40:20.859Z,512.00
2023-05-02T02:41:20.921Z,507.00
2023-05-02T02:42:20.950Z,509.00
2023-05-02T02:43:20.986Z,515.00
2023-05-02T02:44:21.025Z,502.00
2023-05-02T02:45:21.116Z,500.00
2023-05-02T02:46:21.187Z,509.00
2023-05-02T02:47:21.144Z,506.00
2023-05-02T02:48:21.190Z,506.00
2023-05-02T02:49:21.224Z,508.00
2023-05-02T02:50:21.292Z,507.00
2023-05-02T02:51:21.296Z,509.00
2023-05-02T02:52:21.330Z,512.00
2023-05-02T02:53:21.390Z,506.00
2023-05-02T02:54:26.377Z,511.00
2023-05-02T02:55:22.406Z,511.00
2023-05-02T02:56:21.413Z,511.00
2023-05-02T02:57:21.383Z,511.00
2023-05-02T02:58:21.414Z,511.00
2023-05-02T02:59:21.387Z,509.00
2023-05-02T03:00:21.378Z,516.00
2023-05-02T03:01:21.465Z,510.00
2023-05-02T03:02:21.381Z,505.00
2023-05-02T03:03:21.465Z,506.00
2023-05-02T03:04:21.498Z,506.00
2023-05-02T03:05:21.331Z,508.00
2023-05-02T03:06:21.396Z,505.00
2023-05-02T03:07:21.416Z,508.00
2023-05-02T03:08:21.494Z,507.00
2023-05-02T03:09:21.486Z,511.00
2023-05-02T03:10:21.535Z,507.00
2023-05-02T03:11:21.571Z,511.00
2023-05-02T03:12:21.623Z,512.00
2023-05-02T03:13:21.658Z,506.00
2023-05-02T03:14:21.689Z,514.00
2023-05-02T03:15:21.739Z,510.00
2023-05-02T03:16:21.812Z,506.00
2023-05-02T03:17:22.815Z,506.00
2023-05-02T03:18:21.861Z,503.00
2023-05-02T03:19:21.915Z,513.00
2023-05-02T03:20:21.964Z,504.00
2023-05-02T03:21:22.001Z,510.00
2023-05-02T03:22:22.034Z,507.00
2023-05-02T03:23:22.058Z,505.00
2023-05-02T03:24:22.110Z,505.00
2023-05-02T03:25:22.145Z,505.00
2023-05-02T03:26:22.210Z,507.00
2023-05-02T03:27:22.245Z,506.00
2023-05-02T03:28:22.266Z,506.00
2023-05-02T03:29:22.309Z,505.00
2023-05-02T03:30:22.333Z,514.00
2023-05-02T03:31:24.750Z,512.00
2023-05-02T03:32:22.421Z,519.00
2023-05-02T03:33:22.357Z,512.00
2023-05-02T03:34:22.396Z,513.00
2023-05-02T03:35:22.372Z,510.00
2023-05-02T03:36:22.371Z,509.00
2023-05-02T03:37:22.331Z,509.00
2023-05-02T03:38:22.336Z,514.00
2023-05-02T03:39:22.309Z,511.00
2023-05-02T03:40:22.318Z,510.00
2023-05-02T03:41:22.313Z,503.00
2023-05-02T03:42:22.341Z,506.00
2023-05-02T03:43:22.285Z,505.00
2023-05-02T03:44:22.325Z,502.00
2023-05-02T03:45:22.299Z,508.00
2023-05-02T03:46:22.340Z,503.00
2023-05-02T03:47:22.295Z,513.00
2023-05-02T03:48:22.263Z,511.00
2023-05-02T03:49:22.381Z,507.00
2023-05-02T03:50:22.222Z,514.00
2023-05-02T03:51:22.249Z,514.00
2023-05-02T03:52:22.243Z,514.00
2023-05-02T03:53:22.231Z,508.00
2023-05-02T03:54:22.212Z,505.00
2023-05-02T03:55:22.193Z,509.00
2023-05-02T03:56:22.212Z,506.00
2023-05-02T03:57:22.178Z,505.00
2023-05-02T03:58:22.176Z,510.00
2023-05-02T03:59:22.208Z,507.00
2023-05-02T04:00:22.173Z,507.00
2023-05-02T04:01:22.185Z,511.00
2023-05-02T04:02:22.258Z,507.00
2023-05-02T04:03:22.180Z,504.00
2023-05-02T04:04:22.244Z,510.00
2023-05-02T04:05:22.270Z,506.00
2023-05-02T04:06:22.307Z,504.00
2023-05-02T04:07:22.345Z,512.00
2023-05-02T04:08:22.398Z,507.00
2023-05-02T04:09:22.416Z,507.00
2023-05-02T04:10:22.473Z,511.00
2023-05-02T04:11:22.523Z,509.00
2023-05-02T04:12:22.562Z,510.00
2023-05-02T04:13:22.598Z,508.00
2023-05-02T04:14:22.669Z,510.00
2023-05-02T04:15:22.728Z,509.00
2023-05-02T04:16:22.867Z,507.00
2023-05-02T04:17:22.790Z,504.00
2023-05-02T04:18:22.814Z,500.00
2023-05-02T04:19:22.903Z,509.00
2023-05-02T04:20:22.917Z,502.00
2023-05-02T04:21:22.993Z,508.00
2023-05-02T04:22:23.021Z,506.00
2023-05-02T04:23:23.082Z,509.00
2023-05-02T04:24:23.147Z,510.00
2023-05-02T04:25:23.187Z,509.00
2023-05-02T04:26:23.215Z,506.00
2023-05-02T04:27:23.285Z,504.00
2023-05-02T04:28:23.307Z,507.00
2023-05-02T04:29:23.388Z,504.00
2023-05-02T04:30:23.404Z,508.00
2023-05-02T04:31:23.472Z,507.00
2023-05-02T04:32:23.532Z,509.00
2023-05-02T04:33:23.537Z,506.00
2023-05-02T04:34:23.629Z,504.00
2023-05-02T04:35:23.674Z,510.00
2023-05-02T04:36:23.685Z,507.00
2023-05-02T04:37:23.739Z,507.00
2023-05-02T04:38:23.776Z,508.00
2023-05-02T04:39:23.829Z,503.00
2023-05-02T04:40:23.893Z,503.00
2023-05-02T04:41:23.920Z,511.00
2023-05-02T04:42:23.986Z,510.00
2023-05-02T04:43:24.694Z,509.00
2023-05-02T04:44:24.079Z,504.00
2023-05-02T04:45:24.148Z,510.00
2023-05-02T04:46:24.214Z,509.00
2023-05-02T04:47:24.236Z,506.00
2023-05-02T04:48:24.257Z,508.00
2023-05-02T04:49:24.291Z,500.00
2023-05-02T04:50:24.378Z,500.00
2023-05-02T04:51:24.372Z,500.00
2023-05-02T04:52:24.432Z,500.00
2023-05-02T04:53:24.483Z,502.00
2023-05-02T04:54:24.535Z,502.00
2023-05-02T04:55:24.607Z,500.00
2023-05-02T04:56:24.617Z,501.00
2023-05-02T04:57:24.704Z,502.00
2023-05-02T04:58:24.738Z,504.00
2023-05-02T04:59:24.783Z,514.00
2023-05-02T05:00:24.818Z,517.00
2023-05-02T05:01:24.960Z,516.00
2023-05-02T05:02:24.926Z,515.00
2023-05-02T05:03:25.025Z,518.00
2023-05-02T05:04:25.023Z,519.00
2023-05-02T05:05:25.124Z,522.00
2023-05-02T05:06:25.241Z,519.00
2023-05-02T05:07:25.876Z,527.00
2023-05-02T05:08:25.234Z,536.00
2023-05-02T05:09:25.285Z,537.00
2023-05-02T05:10:25.327Z,535.00
2023-05-02T05:11:25.371Z,536.00
2023-05-02T05:12:25.411Z,534.00
2023-05-02T05:13:25.452Z,537.00
2023-05-02T05:14:25.511Z,536.00
2023-05-02T05:15:25.569Z,546.00
2023-05-02T05:16:25.658Z,547.00
2023-05-02T05:17:25.750Z,543.00
2023-05-02T05:18:25.736Z,541.00
2023-05-02T05:19:25.775Z,553.00
2023-05-02T05:20:25.840Z,554.00
2023-05-02T05:21:25.878Z,552.00
2023-05-02T05:22:25.971Z,557.00
2023-05-02T05:23:25.993Z,559.00
2023-05-02T05:24:26.049Z,562.00
2023-05-02T05:25:26.105Z,568.00
2023-05-02T05:26:26.189Z,565.00
2023-05-02T05:27:26.194Z,573.00
2023-05-02T05:28:26.276Z,574.00
2023-05-02T05:29:26.310Z,580.00
2023-05-02T05:30:26.387Z,584.00
2023-05-02T05:31:26.449Z,581.00
2023-05-02T05:32:26.505Z,590.00
2023-05-02T05:33:26.635Z,583.00
2023-05-02T05:34:26.595Z,588.00
2023-05-02T05:35:26.632Z,591.00
2023-05-02T05:36:26.676Z,593.00
2023-05-02T05:37:26.731Z,597.00
2023-05-02T05:38:26.775Z,602.00
2023-05-02T05:39:26.842Z,613.00
2023-05-02T05:40:26.928Z,617.00
2023-05-02T05:41:26.950Z,627.00
2023-05-02T05:42:26.994Z,632.00
2023-05-02T05:43:27.080Z,632.00
2023-05-02T05:44:27.138Z,638.00
2023-05-02T05:45:27.157Z,650.00
2023-05-02T05:46:27.269Z,663.00
2023-05-02T05:47:27.364Z,663.00
2023-05-02T05:48:27.357Z,708.00
2023-05-02T05:49:27.357Z,723.00
2023-05-02T05:50:27.449Z,768.00
2023-05-02T05:51:27.487Z,785.00
2023-05-02T05:52:27.486Z,809.00
2023-05-02T05:53:27.521Z,831.00
2023-05-02T05:54:27.580Z,853.00
2023-05-02T05:55:27.663Z,864.00
2023-05-02T05:56:27.653Z,881.00
2023-05-02T05:57:27.725Z,895.00
2023-05-02T05:58:27.782Z,912.00
2023-05-02T05:59:27.814Z,918.00
2023-05-02T06:00:27.842Z,919.00
2023-05-02T06:01:27.856Z,924.00
2023-05-02T06:02:28.003Z,940.00
2023-05-02T06:03:28.128Z,950.00
2023-05-02T06:04:28.026Z,953.00
2023-05-02T06:05:28.050Z,952.00
2023-05-02T06:06:28.115Z,976.00
2023-05-02T06:07:28.103Z,962.00
2023-05-02T06:08:28.099Z,971.00
2023-05-02T06:09:28.164Z,970.00
2023-05-02T06:10:28.227Z,977.00
2023-05-02T06:11:28.257Z,981.00
2023-05-02T06:12:28.335Z,984.00
2023-05-02T06:13:28.350Z,978.00
2023-05-02T06:14:28.372Z,1002.00
2023-05-02T06:15:28.441Z,992.00
2023-05-02T06:16:28.487Z,1009.00
2023-05-02T06:17:28.617Z,1041.00
2023-05-02T06:18:28.604Z,1022.00
2023-05-02T06:19:28.939Z,1027.00
2023-05-02T06:20:28.730Z,1061.00
2023-05-02T06:21:28.717Z,1074.00
2023-05-02T06:22:28.810Z,1046.00
2023-05-02T06:23:28.854Z,1066.00
2023-05-02T06:24:28.917Z,1073.00
2023-05-02T06:25:28.924Z,1069.00
2023-05-02T06:26:29.001Z,1076.00
2023-05-02T06:27:29.663Z,1079.00
2023-05-02T06:28:29.087Z,1090.00
2023-05-02T06:29:29.414Z,1080.00
2023-05-02T06:30:29.181Z,1079.00
2023-05-02T06:31:29.289Z,1084.00
2023-05-02T06:32:29.301Z,1076.00
2023-05-02T06:33:29.341Z,1071.00
2023-05-02T06:34:29.430Z,1061.00
2023-05-02T06:35:29.490Z,1064.00
2023-05-02T06:36:29.507Z,1098.00
2023-05-02T06:37:29.544Z,1072.00
2023-05-02T06:38:29.705Z,1096.00
2023-05-02T06:39:29.672Z,1076.00
2023-05-02T06:40:29.729Z,1066.00
2023-05-02T06:41:29.789Z,1057.00
2023-05-02T06:42:29.844Z,1060.00
2023-05-02T06:43:29.904Z,1057.00
2023-05-02T06:44:29.950Z,1025.00
2023-05-02T06:45:30.024Z,1046.00
2023-05-02T06:46:30.111Z,1032.00
2023-05-02T06:47:30.163Z,1026.00
2023-05-02T06:48:30.138Z,1028.00
2023-05-02T06:49:30.225Z,1017.00
2023-05-02T06:50:30.282Z,1029.00
2023-05-02T06:51:30.330Z,1035.00
2023-05-02T06:52:30.376Z,1062.00
2023-05-02T06:53:32.449Z,1075.00
2023-05-02T06:54:30.667Z,1082.00
2023-05-02T06:55:30.687Z,1122.00
2023-05-02T06:56:30.748Z,1125.00
2023-05-02T06:57:30.823Z,1128.00
2023-05-02T06:58:30.886Z,1147.00
2023-05-02T06:59:30.874Z,1171.00
2023-05-02T07:00:30.947Z,1181.00
2023-05-02T07:01:31.064Z,1189.00
2023-05-02T07:02:31.004Z,1184.00
2023-05-02T07:03:31.029Z,1180.00
2023-05-02T07:04:31.114Z,1182.00
2023-05-02T07:05:31.107Z,1170.00
2023-05-02T07:06:31.209Z,1204.00
2023-05-02T07:07:31.210Z,1168.00
2023-05-02T07:08:31.254Z,1164.00
2023-05-02T07:09:31.365Z,1187.00
2023-05-02T07:10:31.321Z,1167.00
2023-05-02T07:11:31.371Z,1180.00
2023-05-02T07:12:31.391Z,1204.00
2023-05-02T07:13:31.448Z,1223.00
2023-05-02T07:14:31.483Z,1255.00
2023-05-02T07:15:31.514Z,1218.00
2023-05-02T07:16:31.625Z,1215.00
2023-05-02T07:17:31.636Z,1262.00
2023-05-02T07:18:31.622Z,1317.00
2023-05-02T07:19:31.665Z,1320.00
2023-05-02T07:20:31.712Z,1275.00
2023-05-02T07:21:31.702Z,1249.00
2023-05-02T07:22:31.756Z,1298.00
2023-05-02T07:23:31.800Z,1339.00
2023-05-02T07:24:31.828Z,1331.00
2023-05-02T07:25:31.898Z,1335.00
2023-05-02T07:26:31.853Z,1339.00
2023-05-02T07:27:31.863Z,1345.00
2023-05-02T07:28:31.885Z,1351.00
2023-05-02T07:29:31.955Z,1346.00
2023-05-02T07:30:31.977Z,1375.00
2023-05-02T07:31:32.014Z,1376.00
2023-05-02T07:32:32.210Z,1361.00
2023-05-02T07:33:32.041Z,1376.00
2023-05-02T07:34:32.093Z,1394.00
2023-05-02T07:35:32.072Z,1419.00
2023-05-02T07:36:32.072Z,1426.00
2023-05-02T07:37:34.084Z,1437.00
2023-05-02T07:38:32.123Z,1462.00
2023-05-02T07:39:32.169Z,1475.00
2023-05-02T07:40:32.176Z,1520.00
2023-05-02T07:41:32.215Z,1542.00
2023-05-02T07:42:32.213Z,1529.00
2023-05-02T07:43:32.234Z,1542.00
2023-05-02T07:44:32.453Z,1547.00
2023-05-02T07:45:32.210Z,1559.00
2023-05-02T07:46:32.310Z,1581.00
2023-05-02T07:47:32.282Z,1613.00
2023-05-02T07:48:32.258Z,1596.00
2023-05-02T07:49:32.269Z,1618.00
2023-05-02T07:50:32.453Z,1607.00
2023-05-02T07:51:32.313Z,1558.00
2023-05-02T07:52:32.306Z,1479.00
2023-05-02T07:53:32.318Z,1462.00
2023-05-02T07:54:32.343Z,1542.00
2023-05-02T07:55:32.360Z,1506.00
2023-05-02T07:56:32.350Z,1463.00
2023-05-02T07:57:32.359Z,1471.00
2023-05-02T07:58:32.351Z,1501.00
2023-05-02T07:59:32.349Z,1471.00
2023-05-02T08:00:32.400Z,1436.00
2023-05-02T08:01:32.365Z,1398.00
2023-05-02T08:02:32.481Z,1415.00
2023-05-02T08:03:32.564Z,1415.00
2023-05-02T08:04:32.438Z,1406.00
2023-05-02T08:05:32.449Z,1385.00
2023-05-02T08:06:32.426Z,1348.00
2023-05-02T08:07:32.429Z,1317.00
2023-05-02T08:08:32.456Z,1280.00
2023-05-02T08:09:32.460Z,1214.00
2023-05-02T08:10:32.959Z,1217.00
2023-05-02T08:11:32.498Z,1182.00
2023-05-02T08:12:32.505Z,1174.00
2023-05-02T08:13:32.550Z,1154.00
2023-05-02T08:14:32.532Z,1191.00
2023-05-02T08:15:32.585Z,1174.00
2023-05-02T08:16:32.622Z,1217.00
2023-05-02T08:17:32.672Z,1246.00
2023-05-02T08:18:32.611Z,1141.00
2023-05-02T08:19:32.650Z,1156.00
2023-05-02T08:20:32.678Z,1122.00
2023-05-02T08:21:32.703Z,1124.00
2023-05-02T08:22:32.728Z,1137.00
2023-05-02T08:23:32.743Z,1208.00
2023-05-02T08:24:32.739Z,1186.00
2023-05-02T08:25:32.771Z,1168.00
2023-05-02T08:26:32.799Z,1103.00
2023-05-02T08:27:32.850Z,1153.00
2023-05-02T08:28:32.858Z,1155.00
2023-05-02T08:29:32.872Z,1189.00
2023-05-02T08:30:32.905Z,1182.00
2023-05-02T08:31:33.015Z,1175.00
2023-05-02T08:32:32.959Z,1138.00
2023-05-02T08:33:32.980Z,1136.00
2023-05-02T08:34:33.002Z,1146.00
2023-05-02T08:35:33.016Z,1136.00
2023-05-02T08:36:33.020Z,1160.00
2023-05-02T08:37:33.039Z,1174.00
2023-05-02T08:38:33.081Z,1177.00
2023-05-02T08:39:33.089Z,1156.00
2023-05-02T08:40:41.438Z,1116.00
2023-05-02T08:41:34.138Z,1117.00
2023-05-02T08:42:33.205Z,1118.00
2023-05-02T08:43:33.118Z,1095.00
2023-05-02T08:44:33.084Z,1027.00
2023-05-02T08:45:33.487Z,988.00
2023-05-02T08:46:33.152Z,1012.00
2023-05-02T08:47:33.174Z,1012.00
2023-05-02T08:48:33.084Z,1023.00
2023-05-02T08:49:33.074Z,1020.00
2023-05-02T08:50:33.470Z,1047.00
2023-05-02T08:51:33.084Z,1037.00
2023-05-02T08:52:33.037Z,1058.00
2023-05-02T08:53:33.057Z,1139.00
2023-05-02T08:54:33.032Z,1146.00
2023-05-02T08:55:33.036Z,1192.00
2023-05-02T08:56:33.070Z,1085.00
2023-05-02T08:57:33.215Z,1100.00
2023-05-02T08:58:33.102Z,1140.00
2023-05-02T08:59:33.136Z,1168.00
2023-05-02T09:00:33.180Z,1049.00
2023-05-02T09:01:33.313Z,1068.00
2023-05-02T09:02:33.237Z,969.00
2023-05-02T09:03:33.247Z,1031.00
2023-05-02T09:04:33.334Z,1016.00
2023-05-02T09:05:33.280Z,1027.00
2023-05-02T09:06:33.297Z,1077.00
2023-05-02T09:07:33.299Z,1119.00
2023-05-02T09:08:33.339Z,1087.00
2023-05-02T09:09:33.352Z,1096.00
2023-05-02T09:10:33.500Z,1053.00
2023-05-02T09:11:33.368Z,1016.00
2023-05-02T09:12:33.402Z,1066.00
2023-05-02T09:13:33.395Z,1029.00
2023-05-02T09:14:33.421Z,1067.00
2023-05-02T09:15:33.447Z,1040.00
2023-05-02T09:16:33.496Z,1091.00
2023-05-02T09:17:33.502Z,1042.00
2023-05-02T09:18:33.463Z,1081.00
2023-05-02T09:19:33.484Z,1074.00
2023-05-02T09:20:33.506Z,1007.00
2023-05-02T09:21:33.499Z,1040.00
2023-05-02T09:22:33.536Z,1041.00
2023-05-02T09:23:33.535Z,1039.00
2023-05-02T09:24:33.569Z,1060.00
2023-05-02T09:25:33.585Z,1098.00
2023-05-02T09:26:33.586Z,1125.00
2023-05-02T09:27:33.603Z,1152.00
2023-05-02T09:28:33.592Z,1124.00
2023-05-02T09:29:33.653Z,1107.00
2023-05-02T09:30:33.706Z,1150.00
2023-05-02T09:32:33.645Z,1178.00
2023-05-02T09:33:33.596Z,1180.00
2023-05-02T09:34:33.600Z,1189.00
2023-05-02T09:35:33.625Z,1212.00
2023-05-02T09:36:33.620Z,1190.00
2023-05-02T09:37:33.667Z,1210.00
2023-05-02T09:38:33.599Z,1183.00
2023-05-02T09:39:33.584Z,1167.00
2023-05-02T09:40:33.989Z,1114.00
2023-05-02T09:41:33.543Z,1111.00
2023-05-02T09:42:33.559Z,1033.00
2023-05-02T09:43:33.544Z,984.00
2023-05-02T09:44:34.117Z,1020.00
2023-05-02T09:45:34.005Z,1008.00
2023-05-02T09:46:33.588Z,1058.00
2023-05-02T09:47:33.548Z,959.00
2023-05-02T09:48:33.479Z,800.00
2023-05-02T09:49:33.478Z,698.00
2023-05-02T09:50:34.807Z,775.00
2023-05-02T09:51:33.470Z,780.00
2023-05-02T09:52:33.478Z,858.00
2023-05-02T09:53:33.459Z,902.00
2023-05-02T09:54:33.466Z,833.00
2023-05-02T09:55:33.479Z,912.00
2023-05-02T09:56:33.437Z,937.00
2023-05-02T09:57:33.445Z,857.00
2023-05-02T09:58:33.440Z,828.00
2023-05-02T09:59:33.454Z,868.00
2023-05-02T10:00:33.439Z,985.00
2023-05-02T10:01:33.453Z,1024.00
2023-05-02T10:02:33.539Z,1033.00
2023-05-02T10:03:33.559Z,973.00
2023-05-02T10:04:33.450Z,991.00
2023-05-02T10:05:33.443Z,1052.00
2023-05-02T10:06:33.434Z,1090.00
2023-05-02T10:07:33.370Z,994.00
2023-05-02T10:08:33.355Z,1022.00
2023-05-02T10:09:33.379Z,1064.00
2023-05-02T10:10:33.360Z,1140.00
2023-05-02T10:11:33.438Z,1073.00
2023-05-02T10:12:33.340Z,1019.00
2023-05-02T10:13:33.445Z,1037.00
2023-05-02T10:14:33.319Z,906.00
2023-05-02T10:15:33.367Z,909.00
2023-05-02T10:16:33.465Z,1002.00
2023-05-02T10:17:33.347Z,997.00
2023-05-02T10:18:33.368Z,1027.00
2023-05-02T10:19:33.359Z,1046.00
2023-05-02T10:20:33.367Z,1016.00
2023-05-02T10:21:33.390Z,1042.00
2023-05-02T10:22:33.357Z,1107.00
2023-05-02T10:23:33.360Z,1106.00
2023-05-02T10:24:33.401Z,1137.00
2023-05-02T10:25:33.460Z,1137.00
2023-05-02T10:26:33.463Z,1144.00
2023-05-02T10:27:33.416Z,1194.00
2023-05-02T10:28:33.441Z,1232.00
2023-05-02T10:29:33.467Z,1213.00
2023-05-02T10:30:33.954Z,1249.00
2023-05-02T10:31:33.449Z,1272.00
2023-05-02T10:32:33.457Z,1273.00
2023-05-02T10:33:33.452Z,1274.00
2023-05-02T10:34:33.494Z,1297.00
2023-05-02T10:35:33.523Z,1264.00
2023-05-02T10:36:33.609Z,1276.00
2023-05-02T10:37:33.559Z,1274.00
2023-05-02T10:38:33.611Z,1329.00
2023-05-02T10:39:34.522Z,1338.00
2023-05-02T10:40:34.009Z,1330.00
2023-05-02T10:41:33.654Z,1334.00
2023-05-02T10:42:33.689Z,1361.00
2023-05-02T10:43:33.733Z,1410.00
2023-05-02T10:44:33.766Z,1426.00
2023-05-02T10:45:33.842Z,1431.00
2023-05-02T10:46:33.982Z,1399.00
2023-05-02T10:47:34.001Z,1371.00
2023-05-02T10:48:34.017Z,1371.00
2023-05-02T10:49:34.083Z,1337.00
2023-05-02T10:50:34.179Z,1353.00
2023-05-02T10:51:34.218Z,1331.00
2023-05-02T10:52:34.395Z,1303.00
2023-05-02T10:53:34.343Z,1286.00
2023-05-02T10:54:34.412Z,1305.00
2023-05-02T10:55:34.476Z,1286.00
2023-05-02T10:56:34.524Z,1288.00
2023-05-02T10:57:34.615Z,1246.00
2023-05-02T10:58:34.635Z,1212.00
2023-05-02T10:59:34.786Z,1171.00
2023-05-02T11:00:34.889Z,1203.00
2023-05-02T11:01:34.901Z,1211.00
2023-05-02T11:02:35.073Z,1171.00
2023-05-02T11:03:35.025Z,1153.00
2023-05-02T11:04:35.029Z,1160.00
2023-05-02T11:05:35.112Z,1127.00
2023-05-02T11:06:35.238Z,1178.00
2023-05-02T11:07:35.186Z,1149.00
2023-05-02T11:08:35.274Z,1181.00
2023-05-02T11:09:35.436Z,1177.00
2023-05-02T11:10:35.396Z,1180.00
2023-05-02T11:11:35.456Z,1126.00
2023-05-02T11:12:35.562Z,944.00
2023-05-02T11:13:35.666Z,920.00
2023-05-02T11:14:35.632Z,930.00
2023-05-02T11:15:35.638Z,907.00
2023-05-02T11:16:35.735Z,882.00
2023-05-02T11:17:35.712Z,860.00
2023-05-02T11:18:35.699Z,893.00
2023-05-02T11:19:35.721Z,884.00
2023-05-02T11:20:35.708Z,887.00
2023-05-02T11:21:35.698Z,891.00
2023-05-02T11:22:35.689Z,934.00
2023-05-02T11:23:35.740Z,985.00
2023-05-02T11:24:35.646Z,998.00
2023-05-02T11:25:35.649Z,972.00
2023-05-02T11:26:35.662Z,1010.00
2023-05-02T11:27:35.677Z,1042.00
2023-05-02T11:28:35.716Z,1044.00
2023-05-02T11:29:35.710Z,1076.00
2023-05-02T11:30:36.019Z,1078.00
2023-05-02T11:31:35.815Z,1081.00
2023-05-02T11:32:35.883Z,1097.00
2023-05-02T11:33:35.886Z,1133.00
2023-05-02T11:34:35.954Z,1136.00
2023-05-02T11:35:36.030Z,1138.00
2023-05-02T11:36:36.111Z,1122.00
2023-05-02T11:37:36.062Z,1143.00
2023-05-02T11:38:36.162Z,1099.00
2023-05-02T11:39:36.195Z,1129.00
2023-05-02T11:40:36.209Z,1101.00
2023-05-02T11:41:36.206Z,1081.00
2023-05-02T11:42:36.235Z,1082.00
2023-05-02T11:43:36.205Z,1081.00
2023-05-02T11:44:36.222Z,1069.00
2023-05-02T11:45:36.244Z,1043.00
2023-05-02T11:46:36.220Z,1015.00
2023-05-02T11:47:36.300Z,985.00
2023-05-02T11:48:36.218Z,967.00
2023-05-02T11:49:36.217Z,932.00
2023-05-02T11:50:36.804Z,923.00
2023-05-02T11:51:36.234Z,918.00
2023-05-02T11:52:36.232Z,880.00
2023-05-02T11:53:36.272Z,888.00
2023-05-02T11:54:36.281Z,864.00
2023-05-02T11:55:36.270Z,849.00
2023-05-02T11:56:36.272Z,860.00
2023-05-02T11:57:36.320Z,881.00
2023-05-02T11:58:36.315Z,873.00
2023-05-02T11:59:36.320Z,855.00
2023-05-02T12:00:36.361Z,875.00
2023-05-02T12:01:36.380Z,862.00
2023-05-02T12:02:36.445Z,826.00
2023-05-02T12:03:36.560Z,834.00
2023-05-02T12:04:36.408Z,864.00
2023-05-02T12:05:36.461Z,794.00
2023-05-02T12:06:36.514Z,777.00
2023-05-02T12:07:36.500Z,763.00
2023-05-02T12:08:36.519Z,769.00
2023-05-02T12:09:36.532Z,765.00
2023-05-02T12:10:36.520Z,765.00
2023-05-02T12:11:36.548Z,763.00
2023-05-02T12:12:36.586Z,774.00
2023-05-02T12:13:36.588Z,751.00
2023-05-02T12:14:36.611Z,778.00
2023-05-02T12:15:36.656Z,818.00
2023-05-02T12:16:36.719Z,766.00
2023-05-02T12:17:36.683Z,738.00
2023-05-02T12:18:36.685Z,752.00
2023-05-02T12:19:36.694Z,762.00
2023-05-02T12:20:36.720Z,789.00